Time;durP1;ratioP1;P1;durP2;ratioP2;P2;SDS_P1;SDS_P2;PMS_P1;PMS_P2;Temp;Humidity;BMP_temperature;BMP_pressure;BME280_temperature;BME280_humidity;BME280_pressure;Samples;Min_cycle;Max_cycle;Signal;HPM_P1;HPM_P2
2023/03/07 00:01:02;;;;;;;12.93;7.50;;;4.60;99.90;;;;;;5054440;28;20248;-78
2023/03/07 00:03:27;;;;;;;11.33;6.90;;;4.60;99.90;;;;;;5073120;28;20536;-79
2023/03/07 00:06:04;;;;;;;12.77;8.50;;;4.60;99.90;;;;;;5073809;28;20171;-77
2023/03/07 00:08:31;;;;;;;10.30;7.10;;;4.60;99.90;;;;;;5054842;28;20585;-78
2023/03/07 00:11:03;;;;;;;13.43;7.77;;;4.60;99.90;;;;;;5054263;28;20685;-78
2023/03/07 00:13:30;;;;;;;10.83;7.50;;;4.70;99.90;;;;;;5072117;28;20160;-78
2023/03/07 00:16:07;;;;;;;12.37;7.00;;;4.60;99.90;;;;;;5054342;28;20182;-77
2023/03/07 00:18:33;;;;;;;9.00;6.90;;;4.60;99.90;;;;;;5072476;28;20206;-77
2023/03/07 00:20:59;;;;;;;9.63;6.37;;;4.70;99.90;;;;;;5053984;28;20244;-77
2023/03/07 00:23:25;;;;;;;11.50;6.90;;;4.70;99.90;;;;;;5072207;28;20163;-77
2023/03/07 00:25:59;;;;;;;10.73;6.63;;;4.70;99.90;;;;;;5072022;28;20179;-77
2023/03/07 00:28:24;;;;;;;10.00;6.67;;;4.70;99.90;;;;;;5054081;28;20175;-77
2023/03/07 00:30:50;;;;;;;10.67;6.77;;;4.70;99.90;;;;;;5072067;28;20194;-77
2023/03/07 00:33:15;;;;;;;11.87;6.33;;;4.70;99.90;;;;;;5072209;28;20174;-77
2023/03/07 00:35:41;;;;;;;10.73;6.53;;;4.70;99.90;;;;;;5072342;28;20655;-78
2023/03/07 00:38:06;;;;;;;7.97;6.27;;;4.70;99.90;;;;;;5071974;28;20713;-77
2023/03/07 00:40:32;;;;;;;9.00;6.67;;;4.70;99.90;;;;;;5070481;28;20201;-77
2023/03/07 00:42:57;;;;;;;9.67;6.87;;;4.70;99.90;;;;;;5072062;28;20178;-77
2023/03/07 00:45:23;;;;;;;8.63;5.43;;;4.70;99.90;;;;;;5071927;28;20288;-77
2023/03/07 00:47:48;;;;;;;10.67;5.93;;;4.70;99.90;;;;;;5071715;28;20191;-77
2023/03/07 00:50:14;;;;;;;7.30;5.53;;;4.70;99.90;;;;;;5071644;28;20183;-77
2023/03/07 00:52:39;;;;;;;9.73;6.77;;;4.70;99.90;;;;;;5070410;28;20713;-78
2023/03/07 00:55:06;;;;;;;8.60;5.83;;;4.70;99.90;;;;;;5053860;28;20185;-77
2023/03/07 00:57:31;;;;;;;10.23;6.30;;;4.70;99.90;;;;;;5071775;28;20175;-77
2023/03/07 00:59:57;;;;;;;6.50;5.23;;;4.70;99.90;;;;;;5071758;28;20186;-77
2023/03/07 01:02:22;;;;;;;7.50;5.27;;;4.70;99.90;;;;;;5071911;28;20191;-78
2023/03/07 01:04:48;;;;;;;7.50;5.90;;;4.70;99.90;;;;;;5053779;28;20270;-77
2023/03/07 01:07:13;;;;;;;9.33;6.13;;;4.70;99.90;;;;;;5072827;28;20257;-77
2023/03/07 01:09:39;;;;;;;8.93;5.97;;;4.70;99.90;;;;;;5075568;28;20257;-77
2023/03/07 01:12:06;;;;;;;9.20;6.23;;;4.70;99.90;;;;;;5075154;28;20678;-77
2023/03/07 01:14:32;;;;;;;9.80;6.30;;;4.70;99.90;;;;;;5075124;28;20194;-77
2023/03/07 01:16:57;;;;;;;10.60;5.77;;;4.80;99.90;;;;;;5074973;28;20186;-77
2023/03/07 01:19:23;;;;;;;9.23;5.77;;;4.70;99.90;;;;;;5057645;28;20195;-77
2023/03/07 01:21:49;;;;;;;10.57;6.17;;;4.70;99.90;;;;;;5073736;28;20195;-77
2023/03/07 01:24:15;;;;;;;8.67;6.03;;;4.80;99.90;;;;;;5074952;28;20213;-77
2023/03/07 01:26:41;;;;;;;7.90;5.33;;;4.80;99.90;;;;;;5075152;28;20167;-77
2023/03/07 01:29:08;;;;;;;8.40;5.33;;;4.70;99.90;;;;;;5074976;28;20630;-77
2023/03/07 01:31:34;;;;;;;7.73;5.00;;;4.80;99.90;;;;;;5074808;28;20583;-77
2023/03/07 01:34:01;;;;;;;6.97;5.30;;;4.80;99.90;;;;;;5074802;28;20179;-77
2023/03/07 01:36:32;;;;;;;9.17;5.60;;;4.80;99.90;;;;;;5074844;28;20177;-77
2023/03/07 01:39:05;;;;;;;6.90;4.33;;;4.80;99.90;;;;;;5073279;28;20682;-77
2023/03/07 01:41:32;;;;;;;7.30;5.07;;;4.80;99.90;;;;;;5056897;28;20682;-77
2023/03/07 01:43:59;;;;;;;5.77;4.40;;;4.90;99.90;;;;;;5074494;28;20636;-77
2023/03/07 01:46:29;;;;;;;5.13;3.83;;;4.90;99.90;;;;;;5056519;28;20696;-77
2023/03/07 01:48:59;;;;;;;6.17;3.80;;;4.90;99.90;;;;;;5074460;28;20201;-77
2023/03/07 01:51:27;;;;;;;4.03;3.63;;;4.90;99.90;;;;;;5075019;28;20269;-78
2023/03/07 01:53:54;;;;;;;4.33;3.43;;;4.90;99.90;;;;;;5074533;28;20527;-77
2023/03/07 01:56:21;;;;;;;3.47;2.97;;;4.80;99.90;;;;;;5074396;28;20182;-77
2023/03/07 01:58:47;;;;;;;3.40;2.83;;;4.80;99.90;;;;;;5074121;28;20205;-77
2023/03/07 02:01:13;;;;;;;3.50;2.87;;;4.90;99.90;;;;;;5056173;28;20199;-77
2023/03/07 02:04:07;;;;;;;2.93;2.33;;;4.80;99.90;;;;;;5074209;28;20167;-77
2023/03/07 02:06:35;;;;;;;3.07;2.57;;;4.80;99.90;;;;;;5074252;28;20159;-77
2023/03/07 02:09:02;;;;;;;2.40;2.20;;;4.80;99.90;;;;;;5074163;28;20662;-77
2023/03/07 02:11:28;;;;;;;2.40;2.20;;;4.80;99.90;;;;;;5073998;28;20195;-77
2023/03/07 02:13:54;;;;;;;2.87;1.97;;;4.80;99.90;;;;;;5074029;28;20186;-78
2023/03/07 02:16:19;;;;;;;3.40;2.50;;;4.80;99.90;;;;;;5056118;28;20186;-77
2023/03/07 02:18:48;;;;;;;2.00;1.80;;;4.80;99.90;;;;;;5072890;28;20282;-77
2023/03/07 02:21:40;;;;;;;4.13;2.43;;;4.80;99.90;;;;;;5074137;28;20756;-77
2023/03/07 02:24:21;;;;;;;3.00;2.70;;;4.80;99.90;;;;;;5056096;28;20163;-77
2023/03/07 02:26:49;;;;;;;3.53;2.90;;;4.80;99.90;;;;;;5074163;28;20160;-77
2023/03/07 02:29:15;;;;;;;4.07;3.10;;;4.80;99.90;;;;;;5073715;28;20245;-77
2023/03/07 02:31:41;;;;;;;3.50;3.20;;;4.70;99.90;;;;;;5073830;28;20191;-77
2023/03/07 02:34:24;;;;;;;3.63;3.13;;;4.70;99.90;;;;;;5073591;28;20258;-77
2023/03/07 02:36:55;;;;;;;3.77;2.77;;;4.70;99.90;;;;;;5055553;28;20269;-77
2023/03/07 02:39:22;;;;;;;4.27;2.90;;;4.70;99.90;;;;;;5073376;28;20190;-77
2023/03/07 02:41:52;;;;;;;3.80;2.83;;;4.70;99.90;;;;;;5073416;28;20188;-77
2023/03/07 02:44:17;;;;;;;3.43;2.93;;;4.70;99.90;;;;;;5055372;28;20175;-77
2023/03/07 02:46:43;;;;;;;3.43;3.13;;;4.60;99.90;;;;;;5073659;28;20221;-77
2023/03/07 02:49:08;;;;;;;3.23;2.63;;;4.70;99.90;;;;;;5073218;28;20166;-78
2023/03/07 02:51:34;;;;;;;3.77;3.07;;;4.70;99.90;;;;;;5073223;28;20187;-78
2023/03/07 02:53:59;;;;;;;5.90;2.93;;;4.60;99.90;;;;;;5073432;28;20183;-77
2023/03/07 02:56:25;;;;;;;3.37;2.77;;;4.60;99.90;;;;;;5073149;28;20228;-77
2023/03/07 02:58:50;;;;;;;5.50;2.87;;;4.70;99.90;;;;;;5071805;28;20287;-77
2023/03/07 03:01:16;;;;;;;4.00;3.33;;;4.60;99.90;;;;;;5072934;28;20191;-77
2023/03/07 03:03:41;;;;;;;8.50;3.63;;;4.60;99.90;;;;;;5073893;28;20482;-77
2023/03/07 03:06:07;;;;;;;3.90;3.50;;;4.70;99.90;;;;;;5071662;28;20285;-77
2023/03/07 03:08:33;;;;;;;4.53;3.63;;;4.70;99.90;;;;;;5054883;28;20175;-77
2023/03/07 03:10:58;;;;;;;3.90;3.40;;;4.60;99.90;;;;;;5072735;28;20194;-77
2023/03/07 03:13:24;;;;;;;4.87;3.53;;;4.70;99.90;;;;;;5071627;28;20182;-77
2023/03/07 03:15:55;;;;;;;4.50;3.60;;;4.70;99.90;;;;;;5072808;28;20597;-77
2023/03/07 03:18:21;;;;;;;3.63;3.20;;;4.60;99.90;;;;;;5072698;28;20198;-77
2023/03/07 03:20:47;;;;;;;4.63;3.40;;;4.60;99.90;;;;;;5072615;28;20307;-77
2023/03/07 03:23:12;;;;;;;3.87;3.33;;;4.60;99.90;;;;;;5072600;28;20584;-77
2023/03/07 03:25:38;;;;;;;4.33;3.40;;;4.70;99.90;;;;;;5072864;28;20175;-77
2023/03/07 03:28:03;;;;;;;4.00;3.57;;;4.60;99.90;;;;;;5054648;28;20175;-77
2023/03/07 03:30:31;;;;;;;4.40;3.50;;;4.70;99.90;;;;;;5072362;28;20182;-77
2023/03/07 03:32:57;;;;;;;3.90;2.90;;;4.70;99.90;;;;;;5071313;28;20193;-77
2023/03/07 03:35:23;;;;;;;4.10;3.57;;;4.70;99.90;;;;;;5054634;28;20175;-77
2023/03/07 03:37:48;;;;;;;3.90;3.30;;;4.70;99.90;;;;;;5072466;28;20178;-77
2023/03/07 03:40:16;;;;;;;3.70;3.17;;;4.70;99.90;;;;;;5072499;28;20541;-77
2023/03/07 03:42:42;;;;;;;4.83;3.67;;;4.70;99.90;;;;;;5055061;28;20178;-77
2023/03/07 03:45:09;;;;;;;3.87;2.93;;;4.70;99.90;;;;;;5074286;28;20175;-78
2023/03/07 03:47:35;;;;;;;3.83;3.40;;;4.60;99.90;;;;;;5056226;28;20177;-77
2023/03/07 03:50:01;;;;;;;5.37;2.93;;;4.60;99.90;;;;;;5055339;28;20171;-77
2023/03/07 03:52:26;;;;;;;3.53;3.00;;;4.60;99.90;;;;;;5072557;28;20696;-77
2023/03/07 03:54:52;;;;;;;5.00;3.20;;;4.70;99.90;;;;;;5072583;28;20170;-77
2023/03/07 03:57:19;;;;;;;3.30;2.80;;;4.60;99.90;;;;;;5072273;28;20197;-77
2023/03/07 03:59:45;;;;;;;3.97;3.07;;;4.70;99.90;;;;;;5054122;28;20252;-77
2023/03/07 04:02:11;;;;;;;3.07;2.60;;;4.60;99.90;;;;;;5053997;28;20195;-77
2023/03/07 04:04:36;;;;;;;3.50;2.87;;;4.60;99.90;;;;;;5072358;28;20163;-77
2023/03/07 04:07:03;;;;;;;5.00;3.10;;;4.60;99.90;;;;;;5072210;28;20654;-77
2023/03/07 04:09:29;;;;;;;3.20;2.60;;;4.60;99.90;;;;;;5072032;28;20516;-77
2023/03/07 04:11:55;;;;;;;4.53;3.30;;;4.60;99.90;;;;;;5071984;28;20693;-77
2023/03/07 04:14:20;;;;;;;3.43;2.93;;;4.60;99.90;;;;;;5070848;28;20175;-77
2023/03/07 04:16:46;;;;;;;4.27;3.23;;;4.60;99.90;;;;;;5072006;28;20266;-78
2023/03/07 04:19:11;;;;;;;4.70;3.73;;;4.60;99.90;;;;;;5072068;28;20270;-77
2023/03/07 04:21:39;;;;;;;6.67;4.50;;;4.60;99.90;;;;;;5070671;28;20357;-77
2023/03/07 04:24:08;;;;;;;7.10;4.23;;;4.60;99.90;;;;;;5072051;28;20171;-77
2023/03/07 04:26:34;;;;;;;8.33;4.93;;;4.60;99.90;;;;;;5071903;28;20176;-78
2023/03/07 04:29:00;;;;;;;7.27;5.33;;;4.60;99.90;;;;;;5072235;28;20581;-77
2023/03/07 04:31:26;;;;;;;6.60;4.93;;;4.60;99.90;;;;;;5071836;28;20261;-77
2023/03/07 04:33:54;;;;;;;8.83;5.67;;;4.60;99.90;;;;;;5072246;28;20177;-77
2023/03/07 04:36:20;;;;;;;8.57;5.77;;;4.60;99.90;;;;;;5054027;28;20213;-77
2023/03/07 04:38:47;;;;;;;7.83;5.97;;;4.60;99.90;;;;;;5071922;28;20205;-77
2023/03/07 04:41:25;;;;;;;8.27;5.77;;;4.60;99.90;;;;;;5072328;28;20196;-77
2023/03/07 04:43:51;;;;;;;8.03;5.53;;;4.60;99.90;;;;;;5057999;28;20587;-77
2023/03/07 04:46:17;;;;;;;8.00;6.33;;;4.60;99.90;;;;;;5058705;28;20170;-79
2023/03/07 04:48:44;;;;;;;11.53;6.33;;;4.60;99.90;;;;;;5076162;28;20175;-79
2023/03/07 04:51:09;;;;;;;9.57;6.13;;;4.60;99.90;;;;;;5057712;28;20203;-77
2023/03/07 04:53:35;;;;;;;8.77;5.93;;;4.60;99.90;;;;;;5075644;28;20171;-78
2023/03/07 04:56:03;;;;;;;8.33;5.87;;;4.60;99.90;;;;;;5075772;28;20175;-77
2023/03/07 04:58:29;;;;;;;8.77;5.73;;;4.60;99.90;;;;;;5075339;28;20209;-77
2023/03/07 05:00:58;;;;;;;8.80;6.60;;;4.60;99.90;;;;;;5075463;28;20191;-77
2023/03/07 05:03:25;;;;;;;10.27;6.40;;;4.60;99.90;;;;;;5057489;28;20175;-77
2023/03/07 05:05:51;;;;;;;9.03;6.03;;;4.60;99.90;;;;;;5057340;28;20579;-78
2023/03/07 05:08:17;;;;;;;8.60;6.20;;;4.50;99.90;;;;;;5075292;28;20250;-77
2023/03/07 05:10:42;;;;;;;10.33;5.93;;;4.50;99.90;;;;;;5075073;28;20572;-79
2023/03/07 05:13:08;;;;;;;9.97;6.43;;;4.50;99.90;;;;;;5075353;28;20191;-78
2023/03/07 05:15:34;;;;;;;8.50;6.77;;;4.50;99.90;;;;;;5075132;28;20167;-77
2023/03/07 05:18:00;;;;;;;9.90;6.80;;;4.50;99.90;;;;;;5074922;28;20675;-77
2023/03/07 05:20:26;;;;;;;8.77;6.73;;;4.50;99.90;;;;;;5075310;28;20213;-77
2023/03/07 05:22:51;;;;;;;8.53;6.23;;;4.50;99.90;;;;;;5075045;28;20163;-76
2023/03/07 05:25:17;;;;;;;10.70;7.57;;;4.50;99.90;;;;;;5074965;28;20595;-77
2023/03/07 05:27:43;;;;;;;11.60;7.87;;;4.50;99.90;;;;;;5076467;28;20658;-79
2023/03/07 05:30:09;;;;;;;9.87;6.43;;;4.50;99.90;;;;;;5076835;28;20177;-78
2023/03/07 05:32:35;;;;;;;12.17;6.97;;;4.50;99.90;;;;;;5059170;28;20202;-77
2023/03/07 05:35:01;;;;;;;8.70;6.17;;;4.50;99.90;;;;;;5081390;28;20221;-79
2023/03/07 05:37:26;;;;;;;10.37;7.20;;;4.50;99.90;;;;;;5077606;28;20175;-78
2023/03/07 05:39:52;;;;;;;12.23;6.97;;;4.50;99.90;;;;;;5077932;28;20204;-79
2023/03/07 05:42:18;;;;;;;9.97;7.53;;;4.40;99.90;;;;;;5078942;28;20202;-79
2023/03/07 05:44:43;;;;;;;8.53;6.77;;;4.50;99.90;;;;;;5076563;28;20178;-78
2023/03/07 05:47:09;;;;;;;11.87;7.33;;;4.40;99.90;;;;;;5078384;28;20262;-79
2023/03/07 05:49:34;;;;;;;9.57;6.80;;;4.50;99.90;;;;;;5077642;28;20206;-79
2023/03/07 05:52:00;;;;;;;9.53;5.87;;;4.50;99.90;;;;;;5079106;28;20677;-80
2023/03/07 05:54:25;;;;;;;9.10;6.97;;;4.50;99.90;;;;;;5062387;28;20545;-80
2023/03/07 05:56:51;;;;;;;9.57;7.13;;;4.40;99.90;;;;;;5078378;28;20198;-80
2023/03/07 05:59:17;;;;;;;12.43;7.00;;;4.50;99.90;;;;;;5078690;28;20222;-80
2023/03/07 06:01:42;;;;;;;8.90;7.13;;;4.40;99.90;;;;;;5061285;28;20605;-80
2023/03/07 06:04:08;;;;;;;10.40;7.10;;;4.40;99.90;;;;;;5080187;28;20243;-80
2023/03/07 06:06:34;;;;;;;10.07;7.70;;;4.50;99.90;;;;;;5061282;28;20174;-79
2023/03/07 06:09:00;;;;;;;11.67;7.30;;;4.50;99.90;;;;;;5078698;28;20185;-80
2023/03/07 06:11:25;;;;;;;10.53;7.13;;;4.50;99.90;;;;;;5079946;28;20195;-81
2023/03/07 06:13:51;;;;;;;11.10;7.73;;;4.50;99.90;;;;;;5079300;28;20186;-81
2023/03/07 06:16:17;;;;;;;9.53;7.20;;;4.50;99.90;;;;;;5061475;28;20265;-80
2023/03/07 06:18:42;;;;;;;10.60;6.90;;;4.50;99.90;;;;;;5079819;28;20225;-80
2023/03/07 06:21:11;;;;;;;10.27;6.93;;;4.50;99.90;;;;;;5080006;28;20266;-80
2023/03/07 06:23:37;;;;;;;9.17;6.87;;;4.50;99.90;;;;;;5061565;28;20682;-80
2023/03/07 06:26:03;;;;;;;10.73;7.40;;;4.50;99.90;;;;;;5079675;28;20163;-81
2023/03/07 06:28:29;;;;;;;11.17;7.13;;;4.50;99.90;;;;;;5060701;28;20240;-80
2023/03/07 06:30:55;;;;;;;11.07;7.30;;;4.50;99.90;;;;;;5079132;28;20599;-80
2023/03/07 06:33:20;;;;;;;9.57;7.03;;;4.60;99.90;;;;;;5061030;28;20294;-80
2023/03/07 06:35:46;;;;;;;11.50;7.90;;;4.60;99.90;;;;;;5079360;28;20210;-80
2023/03/07 06:38:14;;;;;;;11.17;7.60;;;4.60;99.90;;;;;;5060953;28;20293;-80
2023/03/07 06:40:40;;;;;;;10.70;8.03;;;4.60;99.90;;;;;;5079447;28;20199;-80
2023/03/07 06:43:06;;;;;;;12.10;8.10;;;4.60;99.90;;;;;;5079315;28;20194;-80
2023/03/07 06:45:32;;;;;;;9.17;7.23;;;4.60;99.90;;;;;;5062954;28;20646;-80
2023/03/07 06:47:57;;;;;;;10.60;8.00;;;4.60;99.90;;;;;;5082537;28;20175;-80
2023/03/07 06:50:23;;;;;;;10.83;7.97;;;4.70;99.90;;;;;;5080975;28;20242;-81
2023/03/07 06:52:50;;;;;;;10.63;8.00;;;4.60;99.90;;;;;;5062062;28;20189;-81
2023/03/07 06:55:19;;;;;;;12.73;8.67;;;4.70;99.90;;;;;;5060423;28;20258;-80
2023/03/07 06:57:45;;;;;;;11.53;8.10;;;4.70;99.90;;;;;;5060471;28;20220;-79
2023/03/07 07:00:12;;;;;;;11.17;8.20;;;4.70;99.90;;;;;;5078245;28;20170;-80
2023/03/07 07:02:38;;;;;;;12.93;7.93;;;4.70;99.90;;;;;;5059926;28;20693;-79
2023/03/07 07:05:04;;;;;;;10.67;7.53;;;4.70;99.90;;;;;;5075920;28;20232;-80
2023/03/07 07:07:30;;;;;;;13.67;7.40;;;4.70;99.90;;;;;;5078360;28;20594;-79
2023/03/07 07:09:56;;;;;;;12.57;8.13;;;4.70;99.90;;;;;;5078333;28;20182;-79
2023/03/07 07:12:21;;;;;;;11.73;7.33;;;4.70;99.90;;;;;;5077282;28;20308;-79
2023/03/07 07:14:47;;;;;;;16.40;8.17;;;4.70;99.90;;;;;;5078125;28;20170;-79
2023/03/07 07:17:12;;;;;;;10.30;7.43;;;4.70;99.90;;;;;;5077935;28;20228;-80
2023/03/07 07:19:38;;;;;;;10.10;6.93;;;4.70;99.90;;;;;;5060001;28;20191;-79
2023/03/07 07:22:05;;;;;;;9.23;7.13;;;4.70;99.90;;;;;;5078158;28;20191;-79
2023/03/07 07:24:30;;;;;;;11.70;8.27;;;4.70;99.90;;;;;;5060180;28;20553;-79
2023/03/07 07:26:56;;;;;;;10.53;7.83;;;4.70;99.90;;;;;;5060757;28;20171;-79
2023/03/07 07:29:22;;;;;;;10.87;8.47;;;4.80;99.90;;;;;;5078113;28;20171;-79
2023/03/07 07:31:48;;;;;;;11.87;8.27;;;4.80;99.90;;;;;;5060927;28;20194;-79
2023/03/07 07:34:14;;;;;;;11.67;7.47;;;4.80;99.90;;;;;;5060775;28;20622;-79
2023/03/07 07:36:40;;;;;;;14.77;9.17;;;4.80;99.90;;;;;;5079219;28;20182;-79
2023/03/07 07:39:06;;;;;;;13.00;8.67;;;4.80;99.90;;;;;;5077056;28;20202;-79
2023/03/07 07:41:32;;;;;;;12.17;8.23;;;4.80;99.90;;;;;;5079002;28;20222;-79
2023/03/07 07:43:58;;;;;;;14.37;8.70;;;4.90;99.90;;;;;;5080059;28;20174;-79
2023/03/07 07:46:24;;;;;;;12.97;8.67;;;4.90;99.90;;;;;;5080768;28;20171;-80
2023/03/07 07:48:49;;;;;;;16.17;9.07;;;4.90;99.90;;;;;;5064795;28;20174;-79
2023/03/07 07:51:15;;;;;;;12.70;8.20;;;4.90;99.90;;;;;;5079309;28;20206;-80
2023/03/07 07:53:41;;;;;;;11.13;7.70;;;4.90;99.90;;;;;;5077637;28;20262;-79
2023/03/07 07:56:07;;;;;;;12.23;8.50;;;4.80;99.90;;;;;;5059907;28;20662;-82
2023/03/07 07:58:32;;;;;;;11.70;7.37;;;4.80;99.90;;;;;;5078310;28;20243;-79
2023/03/07 08:00:58;;;;;;;11.70;7.57;;;4.80;99.90;;;;;;5077511;28;20198;-79
2023/03/07 08:03:23;;;;;;;14.37;8.27;;;4.90;99.90;;;;;;5058445;28;20167;-79
2023/03/07 08:05:49;;;;;;;12.83;8.50;;;4.90;99.90;;;;;;5075919;28;20186;-79
2023/03/07 08:08:16;;;;;;;10.23;7.33;;;4.90;99.90;;;;;;5076592;28;20198;-79
2023/03/07 08:10:43;;;;;;;15.70;8.07;;;4.90;99.90;;;;;;5077789;28;20224;-79
2023/03/07 08:13:12;;;;;;;10.20;7.53;;;4.90;99.90;;;;;;5077498;28;20192;-79
2023/03/07 08:15:38;;;;;;;10.87;6.63;;;4.90;99.90;;;;;;5077662;28;20570;-79
2023/03/07 08:18:03;;;;;;;11.73;7.27;;;4.90;99.90;;;;;;5080112;28;20241;-80
2023/03/07 08:20:29;;;;;;;10.97;7.40;;;4.90;99.90;;;;;;5081107;28;20256;-79
2023/03/07 08:22:54;;;;;;;10.70;6.87;;;4.90;99.90;;;;;;5081146;28;20217;-79
2023/03/07 08:25:22;;;;;;;10.97;6.50;;;4.90;99.90;;;;;;5083083;28;20220;-79
2023/03/07 08:27:52;;;;;;;11.13;7.37;;;4.90;99.90;;;;;;5083049;28;20171;-79
2023/03/07 08:30:18;;;;;;;9.97;6.53;;;4.90;99.90;;;;;;5082649;28;20213;-78
2023/03/07 08:32:44;;;;;;;9.73;6.80;;;4.90;99.90;;;;;;5082951;28;20171;-79
2023/03/07 08:35:09;;;;;;;8.80;6.73;;;4.90;99.90;;;;;;5081861;28;20641;-79
2023/03/07 08:37:36;;;;;;;9.23;6.37;;;4.90;99.90;;;;;;5081463;28;20182;-79
2023/03/07 08:40:02;;;;;;;10.73;6.07;;;4.90;99.90;;;;;;5082878;28;20199;-79
2023/03/07 08:42:27;;;;;;;9.50;6.90;;;4.90;99.90;;;;;;5083277;28;20286;-80
2023/03/07 08:44:52;;;;;;;10.00;5.87;;;4.90;99.90;;;;;;5064485;28;20175;-79
2023/03/07 08:47:18;;;;;;;12.17;6.80;;;4.90;99.90;;;;;;5081633;28;20167;-79
2023/03/07 08:49:44;;;;;;;12.90;7.43;;;4.90;99.90;;;;;;5079018;28;20642;-80
2023/03/07 08:52:09;;;;;;;10.07;6.00;;;4.80;99.90;;;;;;5080094;28;20685;-79
2023/03/07 08:54:35;;;;;;;8.13;5.87;;;4.90;99.90;;;;;;5078761;28;20186;-79
2023/03/07 08:57:00;;;;;;;9.63;6.60;;;4.90;99.90;;;;;;5080856;28;20178;-79
2023/03/07 08:59:26;;;;;;;8.37;6.20;;;4.90;99.90;;;;;;5080517;28;20194;-79
2023/03/07 09:01:52;;;;;;;9.97;6.30;;;4.90;99.90;;;;;;5079938;28;20282;-79
2023/03/07 09:04:17;;;;;;;14.03;7.07;;;4.90;99.90;;;;;;5079006;28;20179;-79
2023/03/07 09:06:43;;;;;;;9.27;5.80;;;4.90;99.90;;;;;;5080384;28;20174;-80
2023/03/07 09:09:08;;;;;;;11.30;7.03;;;4.90;99.90;;;;;;5080509;28;20182;-79
2023/03/07 09:11:34;;;;;;;8.87;5.80;;;4.90;99.90;;;;;;5080357;28;20515;-80
2023/03/07 09:13:59;;;;;;;4.43;4.00;;;4.90;99.90;;;;;;5080658;28;20183;-80
2023/03/07 09:16:25;;;;;;;2.87;2.30;;;4.70;99.90;;;;;;5077921;28;20198;-80
2023/03/07 09:18:50;;;;;;;3.63;2.80;;;4.40;99.90;;;;;;5060561;28;20690;-80
2023/03/07 09:21:16;;;;;;;2.53;2.03;;;4.20;99.90;;;;;;5079163;28;20191;-80
2023/03/07 09:23:42;;;;;;;3.47;1.90;;;4.10;99.90;;;;;;5078937;28;20194;-80
2023/03/07 09:26:09;;;;;;;1.80;1.70;;;4.00;99.90;;;;;;5078649;28;20167;-80
2023/03/07 09:28:34;;;;;;;2.13;1.93;;;4.00;99.90;;;;;;5076770;28;20182;-80
2023/03/07 09:31:06;;;;;;;2.83;2.40;;;4.00;99.90;;;;;;5078843;28;20199;-80
2023/03/07 09:33:31;;;;;;;4.00;2.30;;;4.10;99.90;;;;;;5060938;28;20555;-80
2023/03/07 09:35:57;;;;;;;2.43;2.10;;;4.10;99.90;;;;;;5077092;28;20183;-80
2023/03/07 09:38:22;;;;;;;2.43;1.67;;;4.00;99.90;;;;;;5076720;28;20313;-80
2023/03/07 09:40:48;;;;;;;1.50;1.23;;;3.90;99.90;;;;;;5077412;28;20190;-79
2023/03/07 09:43:18;;;;;;;1.70;1.30;;;3.90;99.90;;;;;;5059846;28;20178;-79
2023/03/07 09:46:02;;;;;;;1.63;1.00;;;3.80;99.90;;;;;;5060564;28;20179;-80
2023/03/07 09:48:46;;;;;;;1.43;1.27;;;3.70;99.90;;;;;;5060201;28;20179;-81
2023/03/07 09:51:24;;;;;;;1.40;1.30;;;3.60;99.90;;;;;;5078243;28;20194;-80
2023/03/07 09:53:55;;;;;;;2.23;1.13;;;3.60;99.90;;;;;;5060437;28;20651;-80
2023/03/07 09:56:34;;;;;;;1.60;1.33;;;3.50;99.90;;;;;;5078133;28;20163;-80
2023/03/07 09:59:21;;;;;;;1.30;1.10;;;3.50;99.90;;;;;;5078425;28;20285;-80
2023/03/07 10:01:50;;;;;;;1.43;1.33;;;3.40;99.90;;;;;;5078176;28;20191;-80
2023/03/07 10:04:48;;;;;;;1.73;1.50;;;3.50;99.90;;;;;;5078638;28;20167;-81
2023/03/07 10:07:15;;;;;;;2.10;1.17;;;3.50;99.90;;;;;;5056133;28;20246;-80
2023/03/07 10:09:42;;;;;;;1.30;1.20;;;3.50;99.90;;;;;;5078036;28;20496;-80
2023/03/07 10:12:25;;;;;;;1.30;1.03;;;3.40;99.90;;;;;;5060114;28;20202;-80
2023/03/07 10:15:08;;;;;;;2.60;1.43;;;3.40;99.90;;;;;;5078632;28;20170;-80
2023/03/07 10:17:52;;;;;;;1.83;1.40;;;3.40;99.90;;;;;;5039747;28;1076905;-81
2023/03/07 10:20:43;;;;;;;2.10;1.50;;;3.40;99.90;;;;;;5078616;28;20179;-80
2023/03/07 10:23:40;;;;;;;2.63;1.50;;;3.30;99.90;;;;;;5080678;28;20156;-80
2023/03/07 10:26:22;;;;;;;1.50;1.30;;;3.30;99.90;;;;;;5078335;28;20159;-80
2023/03/07 10:28:48;;;;;;;1.30;1.20;;;3.40;99.90;;;;;;5078592;28;20208;-80
2023/03/07 10:31:19;;;;;;;2.23;1.30;;;3.30;99.90;;;;;;5078348;28;20194;-80
2023/03/07 10:33:47;;;;;;;1.73;1.37;;;3.20;99.90;;;;;;5078527;28;20166;-80
2023/03/07 10:36:42;;;;;;;1.23;1.13;;;3.30;99.90;;;;;;5060570;28;20182;-80
2023/03/07 10:39:29;;;;;;;1.97;1.20;;;3.30;99.90;;;;;;5059486;28;20210;-80
2023/03/07 10:41:56;;;;;;;1.47;1.30;;;3.30;99.90;;;;;;5076471;28;20206;-80
2023/03/07 10:44:22;;;;;;;1.40;1.30;;;3.40;99.90;;;;;;5078249;28;20182;-79
2023/03/07 10:46:53;;;;;;;1.97;1.60;;;3.40;99.90;;;;;;5078163;28;20179;-80
2023/03/07 10:49:26;;;;;;;2.30;1.00;;;3.40;99.90;;;;;;5077960;28;20194;-80
2023/03/07 10:52:10;;;;;;;2.20;1.53;;;3.40;99.90;;;;;;5060335;28;20650;-80
2023/03/07 10:54:37;;;;;;;1.10;1.00;;;3.40;99.90;;;;;;5078053;28;20282;-80
2023/03/07 10:57:04;;;;;;;1.43;1.00;;;3.40;99.90;;;;;;5059970;28;20179;-80
2023/03/07 10:59:30;;;;;;;1.50;1.30;;;3.30;99.90;;;;;;5077119;28;20546;-80
2023/03/07 11:01:57;;;;;;;1.10;1.00;;;3.40;99.90;;;;;;5078668;28;20270;-80
2023/03/07 11:04:26;;;;;;;1.40;1.10;;;3.30;99.90;;;;;;5078348;28;20216;-80
2023/03/07 11:06:53;;;;;;;1.70;1.60;;;3.30;99.90;;;;;;5060030;28;20212;-80
2023/03/07 11:09:28;;;;;;;1.50;1.30;;;3.20;99.90;;;;;;5077569;28;20178;-80
2023/03/07 11:11:55;;;;;;;1.67;1.20;;;3.20;99.90;;;;;;5059677;28;20202;-81
2023/03/07 11:14:21;;;;;;;2.23;1.60;;;3.30;99.90;;;;;;5077488;28;20187;-80
2023/03/07 11:16:51;;;;;;;2.43;1.60;;;3.10;99.90;;;;;;5077358;28;20201;-80
2023/03/07 11:19:41;;;;;;;1.50;1.40;;;3.20;99.90;;;;;;5077338;28;20198;-79
2023/03/07 11:22:23;;;;;;;1.43;1.33;;;3.20;99.90;;;;;;5077657;28;20183;-80
2023/03/07 11:25:02;;;;;;;2.33;1.20;;;3.30;99.90;;;;;;5059641;28;20545;-80
2023/03/07 11:27:37;;;;;;;1.67;1.30;;;3.30;99.90;;;;;;5077963;28;20155;-80
2023/03/07 11:30:15;;;;;;;2.27;1.47;;;3.20;99.90;;;;;;5059467;28;20215;-80
2023/03/07 11:32:52;;;;;;;2.23;1.57;;;3.20;99.90;;;;;;5076449;28;20171;-80
2023/03/07 11:35:22;;;;;;;1.57;1.37;;;3.20;99.90;;;;;;5076078;28;20167;-80
2023/03/07 11:37:48;;;;;;;2.00;1.70;;;3.20;99.90;;;;;;5077416;28;20191;-80
2023/03/07 11:40:39;;;;;;;1.53;1.30;;;3.20;99.90;;;;;;5077847;28;20681;-79
2023/03/07 11:43:21;;;;;;;1.97;1.50;;;3.20;99.90;;;;;;5077178;28;20181;-80
2023/03/07 11:46:19;;;;;;;2.30;2.10;;;3.30;99.90;;;;;;5077157;28;20401;-80
2023/03/07 11:49:13;;;;;;;2.77;2.17;;;3.20;99.90;;;;;;5049457;28;20191;-80
2023/03/07 11:51:57;;;;;;;2.50;2.20;;;3.20;99.90;;;;;;5076228;28;20205;-80
2023/03/07 11:54:53;;;;;;;2.63;2.40;;;3.30;99.90;;;;;;5059737;28;20217;-80
2023/03/07 11:57:36;;;;;;;2.80;2.00;;;3.30;99.90;;;;;;5076882;28;20251;-80
2023/03/07 12:00:22;;;;;;;2.00;1.30;;;3.30;99.90;;;;;;5076901;28;20186;-80
2023/03/07 12:03:26;;;;;;;2.70;1.70;;;3.30;99.90;;;;;;5075386;28;20186;-79
2023/03/07 12:06:09;;;;;;;2.27;1.60;;;3.20;99.90;;;;;;4995889;28;20178;-80
2023/03/07 12:09:02;;;;;;;2.70;2.00;;;3.30;99.90;;;;;;4995738;28;20227;-80
2023/03/07 12:11:51;;;;;;;2.57;1.90;;;3.30;99.90;;;;;;5058201;28;20244;-80
2023/03/07 12:14:30;;;;;;;2.30;1.93;;;3.30;99.90;;;;;;5059265;28;20213;-80
2023/03/07 12:17:18;;;;;;;3.47;1.90;;;3.30;99.90;;;;;;5076668;28;20186;-80
2023/03/07 12:20:01;;;;;;;1.90;1.67;;;3.30;99.90;;;;;;5076091;28;20196;-79
2023/03/07 12:22:50;;;;;;;2.27;1.60;;;3.30;99.90;;;;;;5075046;28;20189;-78
2023/03/07 12:25:44;;;;;;;2.13;1.70;;;3.30;99.90;;;;;;5075052;28;20148;-79
2023/03/07 12:28:31;;;;;;;1.90;1.70;;;3.30;99.90;;;;;;5070485;28;20317;-79
2023/03/07 12:31:40;;;;;;;1.70;1.60;;;3.20;99.90;;;;;;5075066;28;20283;-78
2023/03/07 12:34:05;;;;;;;2.67;1.53;;;3.10;99.90;;;;;;4993690;28;20162;-79
2023/03/07 12:36:37;;;;;;;3.80;1.80;;;3.10;99.90;;;;;;5061879;28;20190;-79
2023/03/07 12:39:29;;;;;;;2.97;1.70;;;3.10;99.90;;;;;;5056522;28;20198;-79
2023/03/07 12:41:57;;;;;;;2.37;1.57;;;3.10;99.90;;;;;;5074226;28;20732;-79
2023/03/07 12:44:54;;;;;;;2.70;1.90;;;3.10;99.90;;;;;;5074757;28;20167;-79
2023/03/07 12:47:38;;;;;;;2.00;1.37;;;3.20;99.90;;;;;;5055396;28;20216;-79
2023/03/07 12:50:04;;;;;;;1.43;1.30;;;3.20;99.90;;;;;;5073944;28;20159;-79
2023/03/07 12:52:52;;;;;;;1.87;1.33;;;3.30;99.90;;;;;;5072657;28;20198;-78
2023/03/07 12:55:35;;;;;;;1.70;1.20;;;3.30;99.90;;;;;;5074422;28;20216;-78
2023/03/07 12:58:37;;;;;;;1.90;1.30;;;3.20;99.90;;;;;;5074496;28;20216;-79
2023/03/07 13:01:14;;;;;;;2.50;1.30;;;3.20;99.90;;;;;;5038999;28;20198;-79
2023/03/07 13:03:55;;;;;;;5.00;1.37;;;3.20;99.90;;;;;;5058334;28;20178;-79
2023/03/07 13:06:22;;;;;;;2.40;1.30;;;3.20;99.90;;;;;;5077454;28;20155;-79